Vega Emtoli — LAQY7 — position and weather

sailwx.info

Track history (hours):
 
Tides and Currents Weather Stations Pressure Air Temp Water Temp Dewpoint Dewpoint Depression Visibility Wind Speed Wind Dir Waves Ship Positions

Vega Emtoli

Last reported at 2016-Feb-11 12:29 UTC. Time now 2016-Feb-11 14:53 UTC.
Position S 23°29' W 041°06'.

Length 59 m; draft 4 m.

Type: Pollution control. MMSI: 258026000.

Date/timePositionNaut miles runAvg speedWind from/ knotsBaromVisibWave heightAir tempDewpointWater temp
2016-Feb-11 12:29S 23°29' W 041°06'2 1.9
2016-Feb-11 11:19S 23°29' W 041°04'37 1.9
2016-Feb-10 16:10S 22°57' W 040°44'5 0.3
2016-Feb-10 00:07S 23°02' W 040°43'1 2.0
2016-Feb-09 23:25S 23°00' W 040°44'2 0.4
2016-Feb-09 17:16S 23°02' W 040°46'3 0.2
2016-Feb-09 03:34S 22°60' W 040°48'3 0.1
2016-Feb-08 04:31S 23°02' W 040°46'3 2.7
2016-Feb-08 03:25S 22°60' W 040°46'1 0.3
2016-Feb-07 23:11S 22°60' W 040°45'2 0.1
2016-Feb-07 00:29S 23°02' W 040°45'0 0.0
2016-Feb-06 17:28S 23°02' W 040°45'1 1.0
2016-Feb-06 16:11S 23°02' W 040°44'4 0.3
2016-Feb-06 02:20S 23°02' W 040°48'  
2016-Feb-03 00:34S 23°04' W 041°15'8 8.4
2016-Feb-02 23:34S 23°11' W 041°11'8 8.3
2016-Feb-02 22:33S 23°19' W 041°07'6 5.6
2016-Feb-02 21:31S 23°24' W 041°04'2 1.9
2016-Feb-02 20:33S 23°25' W 041°03'2 1.7
2016-Feb-02 19:32S 23°27' W 041°02'1 1.5
2016-Feb-02 18:33S 23°28' W 041°02'1 0.7
2016-Feb-02 17:29S 23°29' W 041°02'1 1.3
2016-Feb-02 16:31S 23°30' W 041°02'2 0.8
2016-Feb-02 13:28S 23°28' W 041°03'1 1.2
2016-Feb-02 12:32S 23°29' W 041°03'2 0.7
2016-Feb-02 10:08S 23°28' W 041°05'1 1.0
2016-Feb-02 09:33S 23°28' W 041°05'1 0.7
2016-Feb-02 08:22S 23°29' W 041°06'0 0.5
2016-Feb-02 07:33S 23°29' W 041°05'1 0.6
2016-Feb-02 06:32S 23°29' W 041°05'1 0.5
2016-Feb-02 05:33S 23°30' W 041°05'2 0.9
2016-Feb-02 03:24S 23°28' W 041°05'2 2.4
2016-Feb-02 02:32S 23°26' W 041°04'2 1.6
2016-Feb-02 01:33S 23°26' W 041°02'2 1.6
2016-Feb-02 00:33S 23°27' W 041°03'1 1.4
2016-Feb-01 23:34S 23°28' W 041°04'1 1.2
2016-Feb-01 22:34S 23°29' W 041°04'2 2.3
2016-Feb-01 21:33S 23°30' W 041°01'1 0.9
2016-Feb-01 20:34S 23°30' W 041°02'1 0.7
2016-Feb-01 19:33S 23°30' W 041°03'2 2.1
2016-Feb-01 18:34S 23°28' W 041°03'1 0.6
2016-Feb-01 17:34S 23°28' W 041°04'1 0.7
2016-Feb-01 16:33S 23°28' W 041°04'1 0.7
2016-Feb-01 15:33S 23°29' W 041°05'0 0.2
2016-Feb-01 14:34S 23°29' W 041°05'1 1.1
2016-Feb-01 13:34S 23°29' W 041°04'1 1.4
2016-Feb-01 12:34S 23°30' W 041°03'  
Track history (hours):
 
Tides and Currents Weather Stations Pressure Air Temp Water Temp Dewpoint Dewpoint Depression Visibility Wind Speed Wind Dir Waves Ship Positions

Vega Emtoli

Last reported at 2016-Feb-11 12:29 UTC. Time now 2016-Feb-11 14:53 UTC.
Position S 23°29' W 041°06'.

Length 59 m; draft 4 m.

Type: Pollution control. MMSI: 258026000.

Date/timePositionNaut miles runAvg speedWind from/ knotsBaromVisibWave heightAir tempDewpointWater temp
2016-Feb-11 12:29S 23°29' W 041°06'2 1.9
2016-Feb-11 11:19S 23°29' W 041°04'37 1.9
2016-Feb-10 16:10S 22°57' W 040°44'5 0.3
2016-Feb-10 00:07S 23°02' W 040°43'1 2.0
2016-Feb-09 23:25S 23°00' W 040°44'2 0.4
2016-Feb-09 17:16S 23°02' W 040°46'3 0.2
2016-Feb-09 03:34S 22°60' W 040°48'3 0.1
2016-Feb-08 04:31S 23°02' W 040°46'3 2.7
2016-Feb-08 03:25S 22°60' W 040°46'1 0.3
2016-Feb-07 23:11S 22°60' W 040°45'2 0.1
2016-Feb-07 00:29S 23°02' W 040°45'0 0.0
2016-Feb-06 17:28S 23°02' W 040°45'1 1.0
2016-Feb-06 16:11S 23°02' W 040°44'4 0.3
2016-Feb-06 02:20S 23°02' W 040°48'  
2016-Feb-03 00:34S 23°04' W 041°15'8 8.4
2016-Feb-02 23:34S 23°11' W 041°11'8 8.3
2016-Feb-02 22:33S 23°19' W 041°07'6 5.6
2016-Feb-02 21:31S 23°24' W 041°04'2 1.9
2016-Feb-02 20:33S 23°25' W 041°03'2 1.7
2016-Feb-02 19:32S 23°27' W 041°02'1 1.5
2016-Feb-02 18:33S 23°28' W 041°02'1 0.7
2016-Feb-02 17:29S 23°29' W 041°02'1 1.3
2016-Feb-02 16:31S 23°30' W 041°02'2 0.8
2016-Feb-02 13:28S 23°28' W 041°03'1 1.2
2016-Feb-02 12:32S 23°29' W 041°03'2 0.7
2016-Feb-02 10:08S 23°28' W 041°05'1 1.0
2016-Feb-02 09:33S 23°28' W 041°05'1 0.7
2016-Feb-02 08:22S 23°29' W 041°06'0 0.5
2016-Feb-02 07:33S 23°29' W 041°05'1 0.6
2016-Feb-02 06:32S 23°29' W 041°05'1 0.5
2016-Feb-02 05:33S 23°30' W 041°05'2 0.9
2016-Feb-02 03:24S 23°28' W 041°05'2 2.4
2016-Feb-02 02:32S 23°26' W 041°04'2 1.6
2016-Feb-02 01:33S 23°26' W 041°02'2 1.6
2016-Feb-02 00:33S 23°27' W 041°03'1 1.4
2016-Feb-01 23:34S 23°28' W 041°04'1 1.2
2016-Feb-01 22:34S 23°29' W 041°04'2 2.3
2016-Feb-01 21:33S 23°30' W 041°01'1 0.9
2016-Feb-01 20:34S 23°30' W 041°02'1 0.7
2016-Feb-01 19:33S 23°30' W 041°03'2 2.1
2016-Feb-01 18:34S 23°28' W 041°03'1 0.6
2016-Feb-01 17:34S 23°28' W 041°04'1 0.7
2016-Feb-01 16:33S 23°28' W 041°04'1 0.7
2016-Feb-01 15:33S 23°29' W 041°05'0 0.2
2016-Feb-01 14:34S 23°29' W 041°05'1 1.1
2016-Feb-01 13:34S 23°29' W 041°04'1 1.4
2016-Feb-01 12:34S 23°30' W 041°03'  

Dump ship's entire track history